Time;durP1;ratioP1;P1;durP2;ratioP2;P2;SDS_P1;SDS_P2;PMS_P1;PMS_P2;Temp;Humidity;BMP_temperature;BMP_pressure;BME280_temperature;BME280_humidity;BME280_pressure;Samples;Min_cycle;Max_cycle;Signal;HPM_P1;HPM_P2
2022/03/10 00:01:46;;;;;;;15.30;12.43;;;;;;;;;;4935733;29;20047;-81
2022/03/10 00:04:12;;;;;;;16.77;12.90;;;;;;;;;;4952163;29;20039;-81
2022/03/10 00:06:38;;;;;;;16.95;11.98;;;;;;;;;;4936654;29;20473;-81
2022/03/10 00:09:04;;;;;;;16.42;12.48;;;;;;;;;;4954878;28;20054;-81
2022/03/10 00:11:30;;;;;;;17.67;12.70;;;;;;;;;;4937219;29;20035;-81
2022/03/10 00:13:56;;;;;;;15.93;11.77;;;;;;;;;;4945987;29;20053;-81
2022/03/10 00:16:22;;;;;;;15.43;12.32;;;;;;;;;;4952214;29;20043;-81
2022/03/10 00:18:48;;;;;;;15.25;12.00;;;;;;;;;;4953139;28;20039;-81
2022/03/10 00:21:15;;;;;;;17.75;12.40;;;;;;;;;;4945797;29;20046;-81
2022/03/10 00:23:41;;;;;;;16.15;12.48;;;;;;;;;;4935519;29;20425;-81
2022/03/10 00:26:06;;;;;;;16.40;12.30;;;;;;;;;;4953059;29;20043;-81
2022/03/10 00:28:33;;;;;;;16.17;12.38;;;;;;;;;;4927880;29;20074;-81
2022/03/10 00:30:59;;;;;;;14.73;11.45;;;;;;;;;;4952449;28;20469;-81
2022/03/10 00:33:25;;;;;;;17.08;12.60;;;;;;;;;;4952525;28;20678;-80
2022/03/10 00:35:51;;;;;;;15.73;13.07;;;;;;;;;;4947061;28;20059;-81
2022/03/10 00:38:18;;;;;;;16.02;12.40;;;;;;;;;;4950174;29;20055;-81
2022/03/10 00:40:44;;;;;;;16.05;11.85;;;;;;;;;;4945568;28;20180;-81
2022/03/10 00:43:11;;;;;;;18.35;12.77;;;;;;;;;;4949289;28;20122;-81
2022/03/10 00:45:38;;;;;;;17.80;12.90;;;;;;;;;;4942224;29;20106;-80
2022/03/10 00:48:04;;;;;;;15.18;12.45;;;;;;;;;;4934809;29;20039;-80
2022/03/10 00:50:30;;;;;;;17.38;13.00;;;;;;;;;;4949913;28;20054;-80
2022/03/10 00:52:56;;;;;;;16.20;12.65;;;;;;;;;;4934540;29;20058;-80
2022/03/10 00:55:22;;;;;;;16.98;13.02;;;;;;;;;;4938797;28;20039;-81
2022/03/10 00:57:49;;;;;;;15.75;12.70;;;;;;;;;;4948899;28;20031;-80
2022/03/10 01:00:15;;;;;;;17.40;12.65;;;;;;;;;;4950094;28;20058;-80
2022/03/10 01:02:41;;;;;;;15.57;12.57;;;;;;;;;;4952485;28;20470;-81
2022/03/10 01:05:08;;;;;;;15.43;12.60;;;;;;;;;;4951923;29;20661;-80
2022/03/10 01:07:34;;;;;;;16.00;13.00;;;;;;;;;;4951120;28;20043;-80
2022/03/10 01:10:00;;;;;;;17.02;13.45;;;;;;;;;;4952375;29;20047;-81
2022/03/10 01:12:26;;;;;;;16.55;13.43;;;;;;;;;;4950097;29;20042;-80
2022/03/10 01:14:52;;;;;;;15.80;12.68;;;;;;;;;;4943020;29;20051;-80
2022/03/10 01:17:19;;;;;;;14.63;12.23;;;;;;;;;;4951074;28;20039;-80
2022/03/10 01:19:45;;;;;;;17.70;13.10;;;;;;;;;;4952668;28;20043;-81
2022/03/10 01:22:11;;;;;;;16.27;13.18;;;;;;;;;;4951114;28;20118;-80
2022/03/10 01:24:37;;;;;;;17.70;13.38;;;;;;;;;;4963132;28;20536;-81
2022/03/10 01:27:03;;;;;;;15.45;12.77;;;;;;;;;;4956396;28;20074;-81
2022/03/10 01:29:30;;;;;;;18.98;13.43;;;;;;;;;;4957850;28;20042;-81
2022/03/10 01:31:55;;;;;;;17.23;13.68;;;;;;;;;;4952697;29;20074;-81
2022/03/10 01:34:21;;;;;;;17.30;13.15;;;;;;;;;;4959001;28;20465;-80
2022/03/10 01:36:47;;;;;;;17.67;14.10;;;;;;;;;;4933995;29;20057;-81
2022/03/10 01:39:13;;;;;;;16.92;12.98;;;;;;;;;;4927750;29;20043;-81
2022/03/10 01:41:39;;;;;;;16.85;13.30;;;;;;;;;;4952947;28;20047;-81
2022/03/10 01:44:06;;;;;;;16.95;13.32;;;;;;;;;;4935896;29;20453;-80
2022/03/10 01:46:33;;;;;;;18.30;12.98;;;;;;;;;;4944046;29;20067;-81
2022/03/10 01:48:59;;;;;;;17.00;13.23;;;;;;;;;;4946739;29;20054;-81
2022/03/10 01:51:27;;;;;;;16.70;13.15;;;;;;;;;;4941903;28;20043;-81
2022/03/10 01:53:53;;;;;;;19.52;13.93;;;;;;;;;;4952088;29;20043;-80
2022/03/10 01:56:20;;;;;;;16.27;13.13;;;;;;;;;;4945137;28;20127;-81
2022/03/10 01:58:46;;;;;;;17.40;13.80;;;;;;;;;;4950987;28;20041;-81
2022/03/10 02:01:13;;;;;;;17.95;13.75;;;;;;;;;;4948681;28;20082;-81
2022/03/10 02:03:39;;;;;;;16.67;13.55;;;;;;;;;;4951131;29;20035;-80
2022/03/10 02:06:06;;;;;;;18.27;13.73;;;;;;;;;;4948586;28;20162;-81
2022/03/10 02:11:19;;;;;;;17.05;13.95;;;;;;;;;;4944137;29;20394;-81
2022/03/10 02:13:45;;;;;;;20.45;14.68;;;;;;;;;;4920939;29;21526;-80
2022/03/10 02:18:56;;;;;;;18.00;14.00;;;;;;;;;;4941657;28;20083;-81
2022/03/10 02:21:22;;;;;;;19.27;13.88;;;;;;;;;;4952632;29;20062;-80
2022/03/10 02:23:48;;;;;;;19.05;13.77;;;;;;;;;;4948927;29;20127;-80
2022/03/10 02:26:15;;;;;;;18.23;13.93;;;;;;;;;;4950285;29;20462;-80
2022/03/10 02:28:41;;;;;;;16.88;13.70;;;;;;;;;;4950288;28;20047;-81
2022/03/10 02:31:07;;;;;;;19.80;14.57;;;;;;;;;;4946547;29;20102;-81
2022/03/10 02:33:33;;;;;;;16.67;13.35;;;;;;;;;;4959244;28;20039;-81
2022/03/10 02:35:59;;;;;;;17.45;13.60;;;;;;;;;;4954066;29;20058;-80
2022/03/10 02:38:25;;;;;;;17.95;14.07;;;;;;;;;;4955724;29;20039;-80
2022/03/10 02:40:51;;;;;;;20.83;14.50;;;;;;;;;;4955990;28;20397;-80
2022/03/10 02:43:18;;;;;;;18.02;14.10;;;;;;;;;;4954723;29;20039;-80
2022/03/10 02:45:45;;;;;;;17.95;13.93;;;;;;;;;;4954752;29;20035;-81
2022/03/10 02:48:11;;;;;;;18.05;14.80;;;;;;;;;;4935505;29;20078;-81
2022/03/10 02:50:37;;;;;;;17.00;14.13;;;;;;;;;;4943785;28;20510;-81
2022/03/10 02:53:05;;;;;;;20.60;14.82;;;;;;;;;;4925522;29;20042;-81
2022/03/10 02:55:31;;;;;;;17.63;14.18;;;;;;;;;;4955309;28;20154;-81
2022/03/10 02:57:57;;;;;;;18.27;14.93;;;;;;;;;;4954730;29;20039;-81
2022/03/10 03:00:23;;;;;;;18.00;13.88;;;;;;;;;;4943257;28;20517;-81
2022/03/10 03:02:49;;;;;;;18.10;15.15;;;;;;;;;;4952485;29;20386;-81
2022/03/10 03:05:16;;;;;;;18.30;14.25;;;;;;;;;;4951434;28;20051;-81
2022/03/10 03:07:43;;;;;;;21.42;14.93;;;;;;;;;;4937598;29;20074;-81
2022/03/10 03:10:09;;;;;;;18.83;15.02;;;;;;;;;;4955117;29;20728;-81
2022/03/10 03:12:35;;;;;;;17.77;14.20;;;;;;;;;;4954476;29;20031;-81
2022/03/10 03:15:01;;;;;;;19.08;14.02;;;;;;;;;;4955320;28;20162;-81
2022/03/10 03:17:27;;;;;;;19.77;14.98;;;;;;;;;;4945172;29;20098;-81
2022/03/10 03:19:53;;;;;;;19.67;14.38;;;;;;;;;;4957698;28;20054;-81
2022/03/10 03:22:20;;;;;;;19.30;14.23;;;;;;;;;;4952791;29;20043;-81
2022/03/10 03:24:46;;;;;;;17.50;14.05;;;;;;;;;;4958301;28;20385;-81
2022/03/10 03:27:12;;;;;;;19.33;14.65;;;;;;;;;;4953495;29;20761;-81
2022/03/10 03:29:38;;;;;;;18.52;14.02;;;;;;;;;;4953987;28;20127;-81
2022/03/10 03:32:05;;;;;;;19.23;14.15;;;;;;;;;;4955571;28;20114;-81
2022/03/10 03:34:31;;;;;;;17.75;13.57;;;;;;;;;;4944746;28;20039;-81
2022/03/10 03:36:57;;;;;;;20.05;14.25;;;;;;;;;;4935726;29;20047;-82
2022/03/10 03:39:23;;;;;;;18.42;13.35;;;;;;;;;;4951742;29;20556;-81
2022/03/10 03:41:48;;;;;;;18.95;14.13;;;;;;;;;;4950261;28;20079;-81
2022/03/10 03:44:15;;;;;;;16.13;13.45;;;;;;;;;;4956741;28;20089;-80
2022/03/10 03:46:41;;;;;;;18.83;14.10;;;;;;;;;;4956497;28;20051;-80
2022/03/10 03:49:07;;;;;;;20.17;14.63;;;;;;;;;;4954564;29;20049;-81
2022/03/10 03:51:33;;;;;;;19.15;14.38;;;;;;;;;;4953120;29;20456;-81
2022/03/10 03:53:59;;;;;;;17.52;14.07;;;;;;;;;;4951891;28;20070;-81
2022/03/10 03:56:25;;;;;;;20.23;14.13;;;;;;;;;;4956193;28;20078;-81
2022/03/10 03:58:52;;;;;;;19.25;14.32;;;;;;;;;;4954083;29;20079;-81
2022/03/10 04:01:18;;;;;;;16.95;14.07;;;;;;;;;;4953576;29;20456;-81
2022/03/10 04:03:44;;;;;;;17.52;13.80;;;;;;;;;;4956277;28;20130;-81
2022/03/10 04:06:10;;;;;;;18.52;13.73;;;;;;;;;;4961783;28;20055;-81
2022/03/10 04:08:36;;;;;;;16.42;13.15;;;;;;;;;;4969874;28;20654;-81
2022/03/10 04:11:03;;;;;;;16.48;13.25;;;;;;;;;;4936767;29;20047;-81
2022/03/10 04:13:29;;;;;;;17.00;13.55;;;;;;;;;;4961426;28;20071;-81
2022/03/10 04:15:55;;;;;;;16.98;13.30;;;;;;;;;;4959862;28;20437;-81
2022/03/10 04:18:21;;;;;;;15.95;12.93;;;;;;;;;;4937756;29;20039;-80
2022/03/10 04:20:48;;;;;;;18.90;13.75;;;;;;;;;;4948942;29;20035;-80
2022/03/10 04:23:15;;;;;;;16.77;12.30;;;;;;;;;;4952957;28;20054;-83
2022/03/10 04:25:41;;;;;;;17.70;12.50;;;;;;;;;;4951071;28;20043;-81
2022/03/10 04:28:07;;;;;;;20.67;12.65;;;;;;;;;;4953763;29;20126;-80
2022/03/10 04:30:33;;;;;;;17.52;12.70;;;;;;;;;;4949050;29;20062;-81
2022/03/10 04:33:00;;;;;;;16.02;13.13;;;;;;;;;;4938769;29;20035;-81
2022/03/10 04:35:26;;;;;;;15.77;13.27;;;;;;;;;;4951013;28;20082;-81
2022/03/10 04:37:52;;;;;;;15.82;12.82;;;;;;;;;;4951829;29;20067;-81
2022/03/10 04:40:19;;;;;;;16.10;13.65;;;;;;;;;;4952353;28;20035;-81
2022/03/10 04:42:45;;;;;;;19.30;12.93;;;;;;;;;;4952437;28;20050;-81
2022/03/10 04:45:11;;;;;;;15.63;12.13;;;;;;;;;;4945713;28;20374;-82
2022/03/10 04:47:38;;;;;;;15.93;13.15;;;;;;;;;;4931673;29;20051;-81
2022/03/10 04:50:05;;;;;;;15.43;12.70;;;;;;;;;;4962750;28;20076;-81
2022/03/10 04:52:31;;;;;;;15.77;13.30;;;;;;;;;;4953862;29;20067;-81
2022/03/10 04:54:57;;;;;;;14.57;11.75;;;;;;;;;;4938407;29;20043;-81
2022/03/10 04:57:23;;;;;;;15.57;12.73;;;;;;;;;;4949335;28;20028;-81
2022/03/10 04:59:49;;;;;;;19.10;12.90;;;;;;;;;;4951451;28;20049;-81
2022/03/10 05:02:15;;;;;;;16.88;12.65;;;;;;;;;;4953846;28;20047;-81
2022/03/10 05:04:41;;;;;;;17.00;12.30;;;;;;;;;;4954471;28;20051;-81
2022/03/10 05:07:07;;;;;;;14.68;11.88;;;;;;;;;;4953552;29;20058;-81
2022/03/10 05:09:33;;;;;;;15.75;13.05;;;;;;;;;;4963101;28;20039;-81
2022/03/10 05:11:59;;;;;;;15.75;12.45;;;;;;;;;;4952460;28;20039;-81
2022/03/10 05:14:25;;;;;;;15.23;12.10;;;;;;;;;;4958341;28;20485;-81
2022/03/10 05:16:51;;;;;;;17.50;12.85;;;;;;;;;;4950190;28;20047;-81
2022/03/10 05:19:18;;;;;;;15.57;12.48;;;;;;;;;;4953581;28;20043;-81
2022/03/10 05:21:44;;;;;;;15.25;11.77;;;;;;;;;;4952547;29;20042;-81
2022/03/10 05:24:11;;;;;;;15.07;12.10;;;;;;;;;;4952886;28;20040;-81
2022/03/10 05:26:38;;;;;;;17.02;12.55;;;;;;;;;;4935029;28;20039;-81
2022/03/10 05:29:04;;;;;;;18.92;12.20;;;;;;;;;;4963639;28;20047;-81
2022/03/10 05:31:30;;;;;;;16.75;13.45;;;;;;;;;;4953552;29;20050;-81
2022/03/10 05:33:56;;;;;;;16.13;12.73;;;;;;;;;;4952381;29;20042;-81
2022/03/10 05:36:22;;;;;;;17.88;13.00;;;;;;;;;;4947517;28;20103;-81
2022/03/10 05:38:48;;;;;;;16.88;13.23;;;;;;;;;;4936819;29;20481;-81
2022/03/10 05:41:14;;;;;;;18.23;13.88;;;;;;;;;;4935647;28;20062;-82
2022/03/10 05:43:40;;;;;;;16.40;13.40;;;;;;;;;;4937217;29;20047;-81
2022/03/10 05:46:07;;;;;;;19.05;13.90;;;;;;;;;;4940999;29;20130;-81
2022/03/10 05:48:33;;;;;;;19.17;14.00;;;;;;;;;;4952506;28;20133;-81
2022/03/10 05:50:59;;;;;;;17.75;13.38;;;;;;;;;;4937157;29;20418;-82
2022/03/10 05:53:26;;;;;;;18.33;14.30;;;;;;;;;;4956082;28;20047;-82
2022/03/10 05:55:52;;;;;;;17.33;13.38;;;;;;;;;;4972047;28;20049;-82
2022/03/10 05:58:18;;;;;;;19.60;13.82;;;;;;;;;;4957857;28;20039;-81
2022/03/10 06:00:44;;;;;;;16.80;12.38;;;;;;;;;;4965958;28;20374;-81
2022/03/10 06:03:10;;;;;;;19.42;13.77;;;;;;;;;;4942590;29;20042;-81
2022/03/10 06:05:37;;;;;;;17.88;13.73;;;;;;;;;;4959255;28;20079;-81
2022/03/10 06:08:04;;;;;;;15.48;12.80;;;;;;;;;;4950214;28;20051;-81
2022/03/10 06:10:30;;;;;;;18.73;13.30;;;;;;;;;;4955894;28;20082;-81
2022/03/10 06:12:56;;;;;;;20.15;13.55;;;;;;;;;;4959066;28;20075;-81
2022/03/10 06:15:22;;;;;;;18.08;12.45;;;;;;;;;;4958908;28;20090;-81
2022/03/10 06:17:48;;;;;;;16.67;13.35;;;;;;;;;;4956903;28;20043;-81
2022/03/10 06:20:14;;;;;;;17.00;12.90;;;;;;;;;;4953974;28;20050;-81
2022/03/10 06:22:40;;;;;;;16.98;13.10;;;;;;;;;;4959127;28;20101;-81
2022/03/10 06:25:06;;;;;;;16.75;13.48;;;;;;;;;;4958887;29;20523;-81
2022/03/10 06:27:33;;;;;;;17.13;12.93;;;;;;;;;;4958985;28;20035;-82
2022/03/10 06:29:59;;;;;;;18.30;13.57;;;;;;;;;;4940852;29;20051;-81
2022/03/10 06:32:25;;;;;;;16.52;13.02;;;;;;;;;;4955180;29;20060;-81
2022/03/10 06:34:52;;;;;;;19.10;14.13;;;;;;;;;;4959426;28;20054;-81
2022/03/10 06:37:18;;;;;;;15.88;12.80;;;;;;;;;;4943114;29;20066;-83
2022/03/10 06:39:44;;;;;;;17.48;12.60;;;;;;;;;;4959382;28;20047;-82
2022/03/10 06:42:10;;;;;;;16.15;12.65;;;;;;;;;;4955712;28;20105;-81
2022/03/10 06:44:36;;;;;;;17.08;12.80;;;;;;;;;;4959531;29;20047;-82
2022/03/10 06:47:06;;;;;;;16.38;12.65;;;;;;;;;;4957088;28;20564;-82
2022/03/10 06:49:33;;;;;;;22.70;13.07;;;;;;;;;;4951437;28;20043;-81
2022/03/10 06:51:59;;;;;;;16.83;12.77;;;;;;;;;;4956749;29;20083;-82
2022/03/10 06:54:25;;;;;;;16.13;12.82;;;;;;;;;;4954148;29;20061;-82
2022/03/10 06:56:51;;;;;;;14.45;12.40;;;;;;;;;;4941848;29;20070;-82
2022/03/10 06:59:17;;;;;;;15.52;12.05;;;;;;;;;;4958889;28;20069;-81
2022/03/10 07:01:43;;;;;;;17.58;12.10;;;;;;;;;;4955580;28;20054;-82
2022/03/10 07:04:09;;;;;;;15.23;11.35;;;;;;;;;;4955959;28;20043;-82
2022/03/10 07:06:35;;;;;;;16.45;12.40;;;;;;;;;;4957845;28;20493;-81
2022/03/10 07:09:02;;;;;;;14.38;11.48;;;;;;;;;;4931736;29;20051;-82
2022/03/10 07:11:27;;;;;;;12.98;11.50;;;;;;;;;;4950476;28;20159;-82
2022/03/10 07:13:54;;;;;;;15.30;12.32;;;;;;;;;;4953909;28;20505;-81
2022/03/10 07:16:19;;;;;;;16.60;12.27;;;;;;;;;;4952710;28;20039;-82
2022/03/10 07:18:51;;;;;;;14.77;11.88;;;;;;;;;;4939309;29;20027;-82
2022/03/10 07:21:21;;;;;;;16.73;11.82;;;;;;;;;;4951777;28;20055;-82
2022/03/10 07:23:47;;;;;;;17.38;12.18;;;;;;;;;;4948896;28;20044;-81
2022/03/10 07:26:13;;;;;;;15.60;12.02;;;;;;;;;;4944399;28;20426;-81
2022/03/10 07:28:40;;;;;;;16.02;12.35;;;;;;;;;;4939185;29;20044;-81
2022/03/10 07:31:06;;;;;;;14.50;11.88;;;;;;;;;;4956859;28;20050;-82
2022/03/10 07:33:32;;;;;;;13.10;11.70;;;;;;;;;;4940841;28;20482;-82
2022/03/10 07:35:58;;;;;;;15.98;12.40;;;;;;;;;;4942401;29;20684;-82
2022/03/10 07:38:25;;;;;;;13.65;11.75;;;;;;;;;;4948114;28;20653;-82
2022/03/10 07:40:51;;;;;;;14.25;11.23;;;;;;;;;;4951755;29;20052;-82
2022/03/10 07:43:17;;;;;;;13.52;11.77;;;;;;;;;;4943033;28;20055;-81
2022/03/10 07:45:43;;;;;;;15.45;11.65;;;;;;;;;;4948559;29;20047;-81
2022/03/10 07:48:09;;;;;;;13.85;12.18;;;;;;;;;;4934914;29;20117;-82
2022/03/10 07:50:36;;;;;;;13.15;11.55;;;;;;;;;;4949889;29;20486;-82
2022/03/10 07:53:02;;;;;;;14.00;12.32;;;;;;;;;;4936850;29;20035;-81
2022/03/10 07:55:28;;;;;;;15.63;11.82;;;;;;;;;;4945722;28;20043;-81
2022/03/10 07:57:54;;;;;;;16.88;11.88;;;;;;;;;;4950296;28;20119;-81
2022/03/10 08:00:20;;;;;;;14.55;11.85;;;;;;;;;;4952457;29;20069;-81
2022/03/10 08:02:46;;;;;;;18.08;12.68;;;;;;;;;;4953610;28;20548;-82
2022/03/10 08:05:12;;;;;;;14.80;12.23;;;;;;;;;;4953499;28;20541;-82
2022/03/10 08:07:38;;;;;;;14.73;11.32;;;;;;;;;;4936740;29;20067;-81
2022/03/10 08:10:04;;;;;;;14.50;12.50;;;;;;;;;;4953974;28;20083;-81
2022/03/10 08:12:31;;;;;;;15.63;12.40;;;;;;;;;;4938880;28;20035;-82
2022/03/10 08:14:57;;;;;;;14.50;12.07;;;;;;;;;;4953225;28;20055;-81
2022/03/10 08:17:25;;;;;;;14.40;12.73;;;;;;;;;;4950366;28;20427;-82
2022/03/10 08:19:51;;;;;;;15.02;12.27;;;;;;;;;;4947570;29;20129;-81
2022/03/10 08:22:17;;;;;;;15.20;12.45;;;;;;;;;;4937516;29;20481;-82
2022/03/10 08:24:44;;;;;;;14.70;12.43;;;;;;;;;;4953650;28;20043;-80
2022/03/10 08:27:10;;;;;;;14.73;12.32;;;;;;;;;;4951795;29;20405;-80
2022/03/10 08:29:36;;;;;;;14.10;11.32;;;;;;;;;;4949412;28;20039;-81
2022/03/10 08:32:03;;;;;;;13.57;12.13;;;;;;;;;;4937507;29;20485;-81
2022/03/10 08:34:29;;;;;;;14.35;12.35;;;;;;;;;;4937861;29;20088;-80
2022/03/10 08:36:56;;;;;;;13.95;11.77;;;;;;;;;;4952831;28;20517;-81
2022/03/10 08:39:21;;;;;;;15.30;11.27;;;;;;;;;;4950320;28;20106;-80
2022/03/10 08:41:49;;;;;;;14.68;12.05;;;;;;;;;;4937385;29;20074;-81
2022/03/10 08:44:15;;;;;;;14.25;12.23;;;;;;;;;;4953011;29;20433;-80
2022/03/10 08:46:41;;;;;;;13.75;12.27;;;;;;;;;;4940912;28;20047;-80
2022/03/10 08:49:07;;;;;;;15.20;12.60;;;;;;;;;;4930786;29;20056;-81
2022/03/10 08:51:33;;;;;;;15.20;12.07;;;;;;;;;;4939768;28;20039;-81
2022/03/10 08:53:59;;;;;;;12.18;10.65;;;;;;;;;;4947699;29;20082;-80
2022/03/10 08:56:25;;;;;;;13.98;12.13;;;;;;;;;;4948483;29;20134;-80
2022/03/10 08:58:51;;;;;;;13.82;11.52;;;;;;;;;;4950459;28;20050;-80
2022/03/10 09:01:17;;;;;;;16.67;12.10;;;;;;;;;;4938294;29;20043;-80
2022/03/10 09:03:43;;;;;;;13.88;11.75;;;;;;;;;;4953813;28;20545;-80
2022/03/10 09:06:13;;;;;;;14.98;11.82;;;;;;;;;;4953515;29;20046;-79
2022/03/10 09:08:40;;;;;;;13.50;11.27;;;;;;;;;;4954251;29;20051;-79
2022/03/10 09:11:07;;;;;;;13.85;11.02;;;;;;;;;;4954297;28;20054;-80
2022/03/10 09:13:33;;;;;;;14.70;11.90;;;;;;;;;;4954908;28;20047;-80
2022/03/10 09:15:59;;;;;;;14.43;11.60;;;;;;;;;;4955118;28;20105;-81
2022/03/10 09:18:25;;;;;;;14.77;11.48;;;;;;;;;;4952726;28;20554;-80
2022/03/10 09:20:51;;;;;;;12.90;11.50;;;;;;;;;;4953728;28;20043;-80
2022/03/10 09:23:17;;;;;;;18.40;11.45;;;;;;;;;;4936244;29;20079;-81
2022/03/10 09:25:43;;;;;;;12.70;11.15;;;;;;;;;;4944475;28;20445;-80
2022/03/10 09:28:10;;;;;;;15.20;11.63;;;;;;;;;;4940263;28;20075;-80
2022/03/10 09:30:36;;;;;;;15.45;11.75;;;;;;;;;;4958903;28;20047;-80
2022/03/10 09:33:02;;;;;;;14.07;11.90;;;;;;;;;;4936975;29;20039;-80
2022/03/10 09:35:29;;;;;;;14.00;12.18;;;;;;;;;;4952385;29;20421;-79
2022/03/10 09:37:55;;;;;;;16.67;11.88;;;;;;;;;;4953381;28;20051;-80
2022/03/10 09:40:21;;;;;;;15.00;12.35;;;;;;;;;;4948434;29;20039;-79
2022/03/10 09:42:48;;;;;;;12.75;11.40;;;;;;;;;;4940463;29;20071;-79
2022/03/10 09:45:15;;;;;;;15.75;11.98;;;;;;;;;;4956941;28;20374;-79
2022/03/10 09:47:43;;;;;;;13.55;11.07;;;;;;;;;;4953573;29;20055;-80
2022/03/10 09:50:11;;;;;;;14.80;12.30;;;;;;;;;;4976542;23;20061;-80
2022/03/10 09:52:37;;;;;;;14.65;12.05;;;;;;;;;;4959154;28;20082;-80
2022/03/10 09:55:04;;;;;;;13.70;11.60;;;;;;;;;;4969127;28;20047;-80
2022/03/10 09:57:32;;;;;;;15.60;12.43;;;;;;;;;;4974112;28;20038;-81
2022/03/10 09:59:58;;;;;;;14.15;11.95;;;;;;;;;;4973670;28;20058;-80
2022/03/10 10:02:25;;;;;;;15.48;12.27;;;;;;;;;;4963507;28;20611;-80
2022/03/10 10:04:51;;;;;;;15.43;12.43;;;;;;;;;;4969067;28;20515;-80
2022/03/10 10:07:21;;;;;;;16.60;12.27;;;;;;;;;;4974537;28;20057;-80
2022/03/10 10:09:53;;;;;;;14.65;11.50;;;;;;;;;;4974537;28;20141;-80
2022/03/10 10:12:22;;;;;;;;;;;;;;;;;;4974835;28;20105;-80
2022/03/10 10:14:49;;;;;;;15.18;12.18;;;;;;;;;;4957439;28;20371;-79
2022/03/10 10:17:15;;;;;;;17.17;11.60;;;;;;;;;;4973767;28;20547;-80
2022/03/10 10:19:42;;;;;;;15.27;12.88;;;;;;;;;;4974085;28;20042;-80
2022/03/10 10:22:15;;;;;;;14.82;12.45;;;;;;;;;;4961847;28;20136;-80
2022/03/10 10:24:48;;;;;;;13.68;11.52;;;;;;;;;;4969381;28;20050;-80
2022/03/10 10:27:18;;;;;;;15.18;13.38;;;;;;;;;;4974324;28;20050;-80
2022/03/10 10:29:45;;;;;;;12.55;10.80;;;;;;;;;;4954657;28;20042;-79
2022/03/10 10:32:11;;;;;;;13.63;11.68;;;;;;;;;;4970727;28;20040;-79
2022/03/10 10:34:37;;;;;;;16.40;12.77;;;;;;;;;;4965393;28;20068;-79
2022/03/10 10:37:03;;;;;;;14.00;12.32;;;;;;;;;;4962638;28;20042;-79
2022/03/10 10:39:29;;;;;;;13.75;12.23;;;;;;;;;;4961910;28;20495;-79
2022/03/10 10:41:55;;;;;;;14.70;12.50;;;;;;;;;;4968669;28;20077;-79
2022/03/10 10:44:23;;;;;;;13.20;11.70;;;;;;;;;;4972920;28;20535;-79
2022/03/10 10:46:50;;;;;;;13.88;12.43;;;;;;;;;;4974651;28;20050;-78
2022/03/10 10:49:17;;;;;;;14.27;12.77;;;;;;;;;;4974815;28;20050;-78
2022/03/10 10:51:44;;;;;;;12.35;11.05;;;;;;;;;;4964584;28;20062;-78
2022/03/10 10:54:31;;;;;;;14.48;11.90;;;;;;;;;;4967514;28;20049;-78
2022/03/10 10:57:02;;;;;;;14.32;11.65;;;;;;;;;;4956894;28;20679;-78
2022/03/10 10:59:43;;;;;;;18.52;13.07;;;;;;;;;;4974100;28;20069;-78
2022/03/10 11:02:16;;;;;;;17.65;12.63;;;;;;;;;;4985087;28;20123;-79
2022/03/10 11:04:46;;;;;;;16.45;12.13;;;;;;;;;;4971414;28;20124;-78
2022/03/10 11:07:13;;;;;;;14.57;13.00;;;;;;;;;;4970705;28;20046;-79
2022/03/10 11:09:41;;;;;;;13.43;12.02;;;;;;;;;;4977401;28;20447;-78
2022/03/10 11:12:09;;;;;;;14.25;12.38;;;;;;;;;;4971680;28;20586;-78
2022/03/10 11:14:35;;;;;;;15.30;11.88;;;;;;;;;;4971344;28;20073;-78
2022/03/10 11:17:01;;;;;;;16.20;13.20;;;;;;;;;;4956665;28;20054;-78
2022/03/10 11:19:31;;;;;;;13.35;11.93;;;;;;;;;;4972458;28;20046;-78
2022/03/10 11:21:57;;;;;;;15.15;12.90;;;;;;;;;;4970644;28;20038;-78
2022/03/10 11:24:39;;;;;;;13.50;12.10;;;;;;;;;;4977071;28;20861;-78
2022/03/10 11:27:14;;;;;;;15.05;13.27;;;;;;;;;;4972492;28;20054;-78
2022/03/10 11:29:40;;;;;;;14.35;12.35;;;;;;;;;;4975554;28;20492;-78
2022/03/10 11:32:07;;;;;;;15.30;12.02;;;;;;;;;;4953252;28;20146;-77
2022/03/10 11:34:50;;;;;;;15.68;12.77;;;;;;;;;;4971704;28;20508;-78
2022/03/10 11:37:36;;;;;;;15.00;13.25;;;;;;;;;;4958169;28;20042;-78
2022/03/10 11:40:02;;;;;;;15.55;12.65;;;;;;;;;;4970518;28;20049;-78
2022/03/10 11:42:30;;;;;;;16.35;13.55;;;;;;;;;;4972495;28;20062;-78
2022/03/10 11:45:06;;;;;;;15.30;12.65;;;;;;;;;;4974928;28;20137;-78
2022/03/10 11:47:32;;;;;;;13.45;12.05;;;;;;;;;;4967042;28;20065;-78
2022/03/10 11:49:58;;;;;;;14.88;13.27;;;;;;;;;;4970146;28;20411;-78
2022/03/10 11:52:27;;;;;;;14.18;12.68;;;;;;;;;;4971266;28;20054;-78
2022/03/10 11:55:07;;;;;;;14.68;12.20;;;;;;;;;;4973185;28;20061;-78
2022/03/10 11:57:43;;;;;;;14.75;12.20;;;;;;;;;;4972078;28;20050;-78
2022/03/10 12:00:09;;;;;;;14.32;12.82;;;;;;;;;;4962515;28;20038;-77
2022/03/10 12:02:39;;;;;;;20.77;12.82;;;;;;;;;;4955960;28;20069;-77
2022/03/10 12:05:06;;;;;;;15.18;12.52;;;;;;;;;;4977022;28;20081;-78
2022/03/10 12:07:32;;;;;;;15.30;12.80;;;;;;;;;;4971089;28;20062;-78
2022/03/10 12:10:08;;;;;;;15.80;13.07;;;;;;;;;;4961832;28;20647;-78
2022/03/10 12:12:45;;;;;;;14.27;12.75;;;;;;;;;;4968045;28;20084;-78
2022/03/10 12:15:24;;;;;;;14.57;12.70;;;;;;;;;;4974663;28;20387;-78
2022/03/10 12:17:52;;;;;;;15.55;13.27;;;;;;;;;;4969877;28;20038;-78
2022/03/10 12:20:23;;;;;;;14.82;12.35;;;;;;;;;;4979167;28;20065;-78
2022/03/10 12:23:09;;;;;;;16.67;12.70;;;;;;;;;;4973478;28;20078;-78
2022/03/10 12:25:50;;;;;;;15.85;12.85;;;;;;;;;;4953033;28;20039;-78
2022/03/10 12:28:24;;;;;;;16.30;13.00;;;;;;;;;;4967145;28;20042;-78
2022/03/10 12:30:53;;;;;;;17.00;13.15;;;;;;;;;;4971098;28;20484;-78
2022/03/10 12:33:19;;;;;;;14.68;12.98;;;;;;;;;;4974060;28;20073;-78
2022/03/10 12:35:45;;;;;;;17.35;13.43;;;;;;;;;;4960877;28;20070;-78
2022/03/10 12:38:10;;;;;;;14.60;11.90;;;;;;;;;;4973529;28;20030;-78
2022/03/10 12:40:38;;;;;;;15.70;13.02;;;;;;;;;;4953455;28;20432;-78
2022/03/10 12:43:06;;;;;;;16.42;11.65;;;;;;;;;;4965520;28;20048;-77
2022/03/10 12:45:32;;;;;;;18.83;13.35;;;;;;;;;;4952748;28;20046;-77
2022/03/10 12:48:04;;;;;;;19.13;14.10;;;;;;;;;;4971198;28;20054;-81
2022/03/10 12:50:33;;;;;;;16.25;12.23;;;;;;;;;;4973586;28;20086;-82
2022/03/10 12:52:59;;;;;;;15.57;12.88;;;;;;;;;;4971572;28;20049;-81
2022/03/10 12:55:26;;;;;;;20.00;15.52;;;;;;;;;;4966578;28;20502;-81
2022/03/10 12:57:58;;;;;;;16.40;12.43;;;;;;;;;;4970370;28;20035;-81
2022/03/10 13:00:25;;;;;;;15.02;12.77;;;;;;;;;;4967990;28;20085;-81
2022/03/10 13:02:55;;;;;;;15.98;12.63;;;;;;;;;;4967886;28;20050;-81
2022/03/10 13:05:22;;;;;;;17.13;12.35;;;;;;;;;;4969605;28;20050;-82
2022/03/10 13:07:47;;;;;;;16.33;12.63;;;;;;;;;;4966768;28;20050;-82
2022/03/10 13:10:15;;;;;;;16.60;12.93;;;;;;;;;;4955720;28;20046;-81
2022/03/10 13:12:47;;;;;;;16.75;13.02;;;;;;;;;;4958768;28;20031;-81
2022/03/10 13:15:24;;;;;;;16.45;12.75;;;;;;;;;;4958465;28;20469;-81
2022/03/10 13:17:51;;;;;;;16.85;13.18;;;;;;;;;;4964796;28;20068;-81
2022/03/10 13:20:20;;;;;;;17.98;12.82;;;;;;;;;;4972931;28;20399;-81
2022/03/10 13:22:50;;;;;;;14.68;12.38;;;;;;;;;;4970123;28;20040;-81
2022/03/10 13:25:17;;;;;;;16.30;13.25;;;;;;;;;;4973949;28;20050;-81
2022/03/10 13:27:44;;;;;;;18.20;13.65;;;;;;;;;;4973862;28;20038;-80
2022/03/10 13:30:23;;;;;;;16.70;13.27;;;;;;;;;;4968217;28;20070;-81
2022/03/10 13:32:51;;;;;;;16.58;12.63;;;;;;;;;;4970880;28;20034;-80
2022/03/10 13:35:21;;;;;;;16.15;13.45;;;;;;;;;;4971735;28;20042;-80
2022/03/10 13:37:47;;;;;;;17.98;12.43;;;;;;;;;;4973085;28;20038;-80
2022/03/10 13:40:14;;;;;;;15.23;12.98;;;;;;;;;;4956510;28;20045;-80
2022/03/10 13:42:40;;;;;;;17.17;12.93;;;;;;;;;;4953993;28;20061;-80
2022/03/10 13:45:06;;;;;;;16.45;12.38;;;;;;;;;;4974588;28;20038;-80
2022/03/10 13:47:52;;;;;;;16.17;12.70;;;;;;;;;;4974043;28;20049;-80
2022/03/10 13:50:19;;;;;;;20.15;12.80;;;;;;;;;;4964915;28;20142;-80
2022/03/10 13:52:46;;;;;;;15.20;11.77;;;;;;;;;;4974027;28;20403;-80
2022/03/10 13:55:12;;;;;;;16.83;12.93;;;;;;;;;;4957223;28;20097;-80
2022/03/10 13:57:38;;;;;;;15.88;12.80;;;;;;;;;;4965994;28;20034;-80
2022/03/10 14:00:07;;;;;;;17.58;12.63;;;;;;;;;;4973886;28;20152;-80
2022/03/10 14:02:33;;;;;;;17.95;13.25;;;;;;;;;;4974032;28;20085;-80
2022/03/10 14:04:59;;;;;;;17.23;14.07;;;;;;;;;;4974350;28;20070;-80
2022/03/10 14:07:25;;;;;;;16.38;13.10;;;;;;;;;;4956453;28;20054;-80
2022/03/10 14:09:51;;;;;;;16.95;13.30;;;;;;;;;;4984331;28;20078;-80
2022/03/10 14:12:19;;;;;;;18.05;14.88;;;;;;;;;;4964524;28;20039;-80
2022/03/10 14:14:47;;;;;;;16.63;13.38;;;;;;;;;;4967981;28;20562;-80
2022/03/10 14:17:14;;;;;;;17.95;14.02;;;;;;;;;;4979217;28;20104;-80
2022/03/10 14:19:39;;;;;;;17.75;14.60;;;;;;;;;;4974084;28;20113;-80
2022/03/10 14:22:14;;;;;;;18.05;14.13;;;;;;;;;;4968391;28;20121;-80
2022/03/10 14:24:40;;;;;;;19.15;14.80;;;;;;;;;;4976973;28;20117;-80